sensor_id;sensor_type;location;lat;lon;timestamp;P1;durP1;ratioP1;P2;durP2;ratioP2
67344;SDS011;54230;52.402;6.276;2023-12-20T00:00:00;12.9;;;2.0;;
67344;SDS011;54230;52.402;6.276;2023-12-20T00:05:00;16.4;;;2.6;;
67344;SDS011;54230;52.402;6.276;2023-12-20T00:10:00;16.7;;;2.2;;
67344;SDS011;54230;52.402;6.276;2023-12-20T00:15:00;18.3;;;2.4;;
67344;SDS011;54230;52.402;6.276;2023-12-20T00:20:00;13.9;;;1.9;;
67344;SDS011;54230;52.402;6.276;2023-12-20T00:25:00;13.8;;;1.9;;
67344;SDS011;54230;52.402;6.276;2023-12-20T00:30:00;15.1;;;2.1;;
67344;SDS011;54230;52.402;6.276;2023-12-20T00:35:00;14.8;;;2.3;;
67344;SDS011;54230;52.402;6.276;2023-12-20T00:40:00;10.3;;;2.1;;
67344;SDS011;54230;52.402;6.276;2023-12-20T00:45:00;14.0;;;2.2;;
67344;SDS011;54230;52.402;6.276;2023-12-20T00:50:00;13.5;;;2.3;;
67344;SDS011;54230;52.402;6.276;2023-12-20T00:55:00;15.1;;;2.4;;
67344;SDS011;54230;52.402;6.276;2023-12-20T01:00:00;16.9;;;2.6;;
67344;SDS011;54230;52.402;6.276;2023-12-20T01:05:00;19.6;;;2.8;;
67344;SDS011;54230;52.402;6.276;2023-12-20T01:10:00;12.9;;;2.6;;
67344;SDS011;54230;52.402;6.276;2023-12-20T01:15:00;20.8;;;2.7;;
67344;SDS011;54230;52.402;6.276;2023-12-20T01:20:00;15.4;;;2.9;;
67344;SDS011;54230;52.402;6.276;2023-12-20T01:25:00;17.5;;;3.0;;
67344;SDS011;54230;52.402;6.276;2023-12-20T01:30:00;14.4;;;2.8;;
67344;SDS011;54230;52.402;6.276;2023-12-20T01:35:00;18.2;;;2.7;;
67344;SDS011;54230;52.402;6.276;2023-12-20T01:40:00;15.1;;;2.4;;
67344;SDS011;54230;52.402;6.276;2023-12-20T01:45:00;19.3;;;2.5;;
67344;SDS011;54230;52.402;6.276;2023-12-20T01:50:00;16.3;;;2.8;;
67344;SDS011;54230;52.402;6.276;2023-12-20T01:55:00;20.0;;;3.2;;
67344;SDS011;54230;52.402;6.276;2023-12-20T02:00:00;12.4;;;2.8;;
67344;SDS011;54230;52.402;6.276;2023-12-20T02:05:00;17.4;;;3.0;;
67344;SDS011;54230;52.402;6.276;2023-12-20T02:10:00;20.8;;;2.9;;
67344;SDS011;54230;52.402;6.276;2023-12-20T02:15:00;16.0;;;2.6;;
67344;SDS011;54230;52.402;6.276;2023-12-20T02:20:00;21.5;;;2.5;;
67344;SDS011;54230;52.402;6.276;2023-12-20T02:25:00;19.0;;;2.9;;
67344;SDS011;54230;52.402;6.276;2023-12-20T02:30:00;20.0;;;2.7;;
67344;SDS011;54230;52.402;6.276;2023-12-20T02:35:00;17.9;;;2.9;;
67344;SDS011;54230;52.402;6.276;2023-12-20T02:40:00;24.0;;;2.9;;
67344;SDS011;54230;52.402;6.276;2023-12-20T02:45:00;20.6;;;2.7;;
67344;SDS011;54230;52.402;6.276;2023-12-20T02:50:00;18.3;;;2.7;;
67344;SDS011;54230;52.402;6.276;2023-12-20T02:55:00;22.9;;;3.0;;
67344;SDS011;54230;52.402;6.276;2023-12-20T03:00:00;17.9;;;2.5;;
67344;SDS011;54230;52.402;6.276;2023-12-20T03:05:00;22.7;;;3.0;;
67344;SDS011;54230;52.402;6.276;2023-12-20T03:10:00;17.3;;;2.9;;
67344;SDS011;54230;52.402;6.276;2023-12-20T03:15:00;20.5;;;2.7;;
67344;SDS011;54230;52.402;6.276;2023-12-20T03:20:00;16.6;;;2.9;;
67344;SDS011;54230;52.402;6.276;2023-12-20T03:25:00;24.7;;;3.2;;
67344;SDS011;54230;52.402;6.276;2023-12-20T03:30:00;19.9;;;3.1;;
67344;SDS011;54230;52.402;6.276;2023-12-20T03:35:00;19.1;;;3.0;;
67344;SDS011;54230;52.402;6.276;2023-12-20T03:40:00;19.3;;;3.0;;
67344;SDS011;54230;52.402;6.276;2023-12-20T03:45:00;19.4;;;3.2;;
67344;SDS011;54230;52.402;6.276;2023-12-20T03:50:00;24.1;;;3.7;;
67344;SDS011;54230;52.402;6.276;2023-12-20T03:55:00;18.9;;;3.1;;
67344;SDS011;54230;52.402;6.276;2023-12-20T04:00:00;20.2;;;3.3;;
67344;SDS011;54230;52.402;6.276;2023-12-20T04:05:00;22.4;;;3.2;;
67344;SDS011;54230;52.402;6.276;2023-12-20T04:10:00;22.8;;;3.0;;
67344;SDS011;54230;52.402;6.276;2023-12-20T04:15:00;23.7;;;3.5;;
67344;SDS011;54230;52.402;6.276;2023-12-20T04:20:00;24.5;;;3.6;;
67344;SDS011;54230;52.402;6.276;2023-12-20T04:25:00;21.4;;;3.6;;
67344;SDS011;54230;52.402;6.276;2023-12-20T04:30:00;24.4;;;3.7;;
67344;SDS011;54230;52.402;6.276;2023-12-20T04:35:00;23.2;;;3.0;;
67344;SDS011;54230;52.402;6.276;2023-12-20T04:40:00;24.4;;;3.1;;
67344;SDS011;54230;52.402;6.276;2023-12-20T04:45:00;24.0;;;3.5;;
67344;SDS011;54230;52.402;6.276;2023-12-20T04:50:00;27.4;;;3.4;;
67344;SDS011;54230;52.402;6.276;2023-12-20T04:55:00;21.6;;;3.8;;
67344;SDS011;54230;52.402;6.276;2023-12-20T05:00:00;28.0;;;3.4;;
67344;SDS011;54230;52.402;6.276;2023-12-20T05:05:00;22.7;;;3.0;;
67344;SDS011;54230;52.402;6.276;2023-12-20T05:10:00;19.8;;;3.4;;
67344;SDS011;54230;52.402;6.276;2023-12-20T05:15:00;20.7;;;3.5;;
67344;SDS011;54230;52.402;6.276;2023-12-20T05:20:00;19.7;;;3.4;;
67344;SDS011;54230;52.402;6.276;2023-12-20T05:25:00;19.7;;;3.2;;
67344;SDS011;54230;52.402;6.276;2023-12-20T05:30:00;22.7;;;3.7;;
67344;SDS011;54230;52.402;6.276;2023-12-20T05:35:00;19.8;;;3.5;;
67344;SDS011;54230;52.402;6.276;2023-12-20T05:40:00;19.0;;;3.5;;
67344;SDS011;54230;52.402;6.276;2023-12-20T05:45:00;24.2;;;3.5;;
67344;SDS011;54230;52.402;6.276;2023-12-20T05:50:00;20.8;;;3.2;;
67344;SDS011;54230;52.402;6.276;2023-12-20T05:55:00;26.4;;;3.4;;
67344;SDS011;54230;52.402;6.276;2023-12-20T06:00:00;20.9;;;3.3;;
67344;SDS011;54230;52.402;6.276;2023-12-20T06:05:00;23.7;;;3.2;;
67344;SDS011;54230;52.402;6.276;2023-12-20T06:10:00;21.8;;;3.6;;
67344;SDS011;54230;52.402;6.276;2023-12-20T06:15:00;23.4;;;3.2;;
67344;SDS011;54230;52.402;6.276;2023-12-20T06:20:00;19.4;;;3.0;;
67344;SDS011;54230;52.402;6.276;2023-12-20T06:25:00;21.2;;;3.0;;
67344;SDS011;54230;52.402;6.276;2023-12-20T06:30:00;20.7;;;3.2;;
67344;SDS011;54230;52.402;6.276;2023-12-20T06:35:00;21.7;;;3.7;;
67344;SDS011;54230;52.402;6.276;2023-12-20T06:40:00;17.9;;;3.0;;
67344;SDS011;54230;52.402;6.276;2023-12-20T06:45:00;18.6;;;3.3;;
67344;SDS011;54230;52.402;6.276;2023-12-20T06:50:00;15.3;;;3.0;;
67344;SDS011;54230;52.402;6.276;2023-12-20T06:55:00;18.6;;;3.1;;
67344;SDS011;54230;52.402;6.276;2023-12-20T07:00:00;15.9;;;3.1;;
67344;SDS011;54230;52.402;6.276;2023-12-20T07:05:00;19.5;;;3.3;;
67344;SDS011;54230;52.402;6.276;2023-12-20T07:10:00;15.0;;;2.8;;
67344;SDS011;54230;52.402;6.276;2023-12-20T07:15:00;16.1;;;2.6;;
67344;SDS011;54230;52.402;6.276;2023-12-20T07:20:00;17.7;;;2.6;;
67344;SDS011;54230;52.402;6.276;2023-12-20T07:25:00;20.6;;;3.1;;
67344;SDS011;54230;52.402;6.276;2023-12-20T07:30:00;18.4;;;2.8;;
67344;SDS011;54230;52.402;6.276;2023-12-20T07:35:00;17.6;;;3.0;;
67344;SDS011;54230;52.402;6.276;2023-12-20T07:40:00;20.0;;;3.1;;
67344;SDS011;54230;52.402;6.276;2023-12-20T07:45:00;19.2;;;3.0;;
67344;SDS011;54230;52.402;6.276;2023-12-20T07:50:00;17.4;;;3.1;;
67344;SDS011;54230;52.402;6.276;2023-12-20T07:55:00;15.9;;;3.3;;
67344;SDS011;54230;52.402;6.276;2023-12-20T08:00:00;15.6;;;3.0;;
67344;SDS011;54230;52.402;6.276;2023-12-20T08:05:00;19.1;;;3.2;;
67344;SDS011;54230;52.402;6.276;2023-12-20T08:10:00;15.2;;;3.2;;
67344;SDS011;54230;52.402;6.276;2023-12-20T08:15:00;16.8;;;3.1;;
67344;SDS011;54230;52.402;6.276;2023-12-20T08:20:00;14.8;;;3.2;;
67344;SDS011;54230;52.402;6.276;2023-12-20T08:25:00;17.8;;;3.0;;
67344;SDS011;54230;52.402;6.276;2023-12-20T08:30:00;22.5;;;3.2;;
67344;SDS011;54230;52.402;6.276;2023-12-20T08:35:00;20.0;;;3.1;;
67344;SDS011;54230;52.402;6.276;2023-12-20T08:40:00;17.4;;;3.2;;
67344;SDS011;54230;52.402;6.276;2023-12-20T08:45:00;18.1;;;2.9;;
67344;SDS011;54230;52.402;6.276;2023-12-20T08:50:00;16.6;;;3.1;;
67344;SDS011;54230;52.402;6.276;2023-12-20T08:55:00;21.3;;;3.3;;
67344;SDS011;54230;52.402;6.276;2023-12-20T09:00:00;21.7;;;3.3;;
67344;SDS011;54230;52.402;6.276;2023-12-20T09:05:00;18.6;;;3.2;;
67344;SDS011;54230;52.402;6.276;2023-12-20T09:10:00;26.7;;;3.6;;
67344;SDS011;54230;52.402;6.276;2023-12-20T09:15:00;20.5;;;3.7;;
67344;SDS011;54230;52.402;6.276;2023-12-20T09:20:00;21.6;;;3.5;;
67344;SDS011;54230;52.402;6.276;2023-12-20T09:25:00;21.2;;;3.4;;
67344;SDS011;54230;52.402;6.276;2023-12-20T09:30:00;27.2;;;3.4;;
67344;SDS011;54230;52.402;6.276;2023-12-20T09:35:00;20.5;;;3.7;;
67344;SDS011;54230;52.402;6.276;2023-12-20T09:40:00;18.0;;;3.3;;
67344;SDS011;54230;52.402;6.276;2023-12-20T09:45:00;22.5;;;3.3;;
67344;SDS011;54230;52.402;6.276;2023-12-20T09:50:00;18.9;;;3.1;;
67344;SDS011;54230;52.402;6.276;2023-12-20T09:55:00;20.6;;;3.4;;
67344;SDS011;54230;52.402;6.276;2023-12-20T10:00:00;16.5;;;2.7;;
67344;SDS011;54230;52.402;6.276;2023-12-20T10:05:00;13.2;;;2.5;;
67344;SDS011;54230;52.402;6.276;2023-12-20T10:10:00;15.4;;;2.8;;
67344;SDS011;54230;52.402;6.276;2023-12-20T10:15:00;19.3;;;3.3;;
67344;SDS011;54230;52.402;6.276;2023-12-20T10:20:00;16.6;;;2.6;;
67344;SDS011;54230;52.402;6.276;2023-12-20T10:25:00;18.2;;;2.8;;
67344;SDS011;54230;52.402;6.276;2023-12-20T10:30:00;19.1;;;3.0;;
67344;SDS011;54230;52.402;6.276;2023-12-20T10:35:00;13.3;;;2.6;;
67344;SDS011;54230;52.402;6.276;2023-12-20T10:40:00;20.3;;;3.6;;
67344;SDS011;54230;52.402;6.276;2023-12-20T10:45:00;15.4;;;2.6;;
67344;SDS011;54230;52.402;6.276;2023-12-20T10:50:00;18.8;;;2.8;;
67344;SDS011;54230;52.402;6.276;2023-12-20T10:55:00;12.1;;;2.4;;
67344;SDS011;54230;52.402;6.276;2023-12-20T11:00:00;17.4;;;3.0;;
67344;SDS011;54230;52.402;6.276;2023-12-20T11:05:03;15.8;;;3.3;;
67344;SDS011;54230;52.402;6.276;2023-12-20T11:10:01;18.9;;;3.0;;
67344;SDS011;54230;52.402;6.276;2023-12-20T11:15:00;16.4;;;2.8;;
67344;SDS011;54230;52.402;6.276;2023-12-20T11:20:03;16.3;;;2.7;;
67344;SDS011;54230;52.402;6.276;2023-12-20T11:25:02;11.1;;;2.4;;
67344;SDS011;54230;52.402;6.276;2023-12-20T11:30:00;8.6;;;1.8;;
67344;SDS011;54230;52.402;6.276;2023-12-20T11:35:00;7.7;;;1.6;;
67344;SDS011;54230;52.402;6.276;2023-12-20T11:40:00;6.9;;;1.7;;
67344;SDS011;54230;52.402;6.276;2023-12-20T11:45:01;9.2;;;1.8;;
67344;SDS011;54230;52.402;6.276;2023-12-20T11:50:00;8.0;;;1.9;;
67344;SDS011;54230;52.402;6.276;2023-12-20T11:55:00;8.3;;;2.0;;
67344;SDS011;54230;52.402;6.276;2023-12-20T12:00:00;6.5;;;1.9;;
67344;SDS011;54230;52.402;6.276;2023-12-20T12:05:00;6.9;;;1.6;;
67344;SDS011;54230;52.402;6.276;2023-12-20T12:10:00;11.3;;;1.8;;
67344;SDS011;54230;52.402;6.276;2023-12-20T12:15:00;11.5;;;1.7;;
67344;SDS011;54230;52.402;6.276;2023-12-20T12:20:01;8.0;;;1.5;;
67344;SDS011;54230;52.402;6.276;2023-12-20T12:25:08;8.6;;;1.5;;
67344;SDS011;54230;52.402;6.276;2023-12-20T12:30:00;8.3;;;1.8;;
67344;SDS011;54230;52.402;6.276;2023-12-20T12:35:00;9.7;;;1.8;;
67344;SDS011;54230;52.402;6.276;2023-12-20T12:40:00;10.6;;;1.8;;
67344;SDS011;54230;52.402;6.276;2023-12-20T12:45:00;7.0;;;1.4;;
67344;SDS011;54230;52.402;6.276;2023-12-20T12:50:00;12.1;;;2.3;;
67344;SDS011;54230;52.402;6.276;2023-12-20T12:55:00;13.0;;;2.1;;
67344;SDS011;54230;52.402;6.276;2023-12-20T13:00:00;14.2;;;2.7;;
67344;SDS011;54230;52.402;6.276;2023-12-20T13:05:00;15.1;;;2.5;;
67344;SDS011;54230;52.402;6.276;2023-12-20T13:10:00;17.3;;;2.7;;
67344;SDS011;54230;52.402;6.276;2023-12-20T13:15:00;17.8;;;2.4;;
67344;SDS011;54230;52.402;6.276;2023-12-20T13:20:00;20.4;;;2.9;;
67344;SDS011;54230;52.402;6.276;2023-12-20T13:25:00;16.1;;;2.7;;
67344;SDS011;54230;52.402;6.276;2023-12-20T13:30:00;21.2;;;3.1;;
67344;SDS011;54230;52.402;6.276;2023-12-20T13:35:00;21.3;;;3.3;;
67344;SDS011;54230;52.402;6.276;2023-12-20T13:40:00;22.9;;;3.9;;
67344;SDS011;54230;52.402;6.276;2023-12-20T13:45:00;22.0;;;3.4;;
67344;SDS011;54230;52.402;6.276;2023-12-20T13:50:00;23.2;;;3.7;;
67344;SDS011;54230;52.402;6.276;2023-12-20T13:55:00;18.8;;;3.0;;
67344;SDS011;54230;52.402;6.276;2023-12-20T14:00:00;21.8;;;3.8;;
67344;SDS011;54230;52.402;6.276;2023-12-20T14:05:00;18.5;;;3.0;;
67344;SDS011;54230;52.402;6.276;2023-12-20T14:10:00;18.5;;;3.5;;
67344;SDS011;54230;52.402;6.276;2023-12-20T14:15:00;22.8;;;4.0;;
67344;SDS011;54230;52.402;6.276;2023-12-20T14:20:00;16.4;;;3.0;;
67344;SDS011;54230;52.402;6.276;2023-12-20T14:25:00;24.2;;;3.3;;
67344;SDS011;54230;52.402;6.276;2023-12-20T14:30:00;17.8;;;3.0;;
67344;SDS011;54230;52.402;6.276;2023-12-20T14:35:00;17.9;;;2.7;;
67344;SDS011;54230;52.402;6.276;2023-12-20T14:40:00;18.9;;;2.9;;
67344;SDS011;54230;52.402;6.276;2023-12-20T14:45:00;16.3;;;2.9;;
67344;SDS011;54230;52.402;6.276;2023-12-20T14:50:00;17.4;;;3.0;;
67344;SDS011;54230;52.402;6.276;2023-12-20T14:55:00;13.6;;;2.9;;
67344;SDS011;54230;52.402;6.276;2023-12-20T15:00:00;17.1;;;3.1;;
67344;SDS011;54230;52.402;6.276;2023-12-20T15:05:00;18.5;;;3.5;;
67344;SDS011;54230;52.402;6.276;2023-12-20T15:10:00;18.2;;;2.9;;
67344;SDS011;54230;52.402;6.276;2023-12-20T15:15:00;17.9;;;3.1;;
67344;SDS011;54230;52.402;6.276;2023-12-20T15:20:00;18.5;;;3.2;;
67344;SDS011;54230;52.402;6.276;2023-12-20T15:25:00;18.7;;;3.1;;
67344;SDS011;54230;52.402;6.276;2023-12-20T15:30:00;18.6;;;3.0;;
67344;SDS011;54230;52.402;6.276;2023-12-20T15:35:00;16.9;;;3.2;;
67344;SDS011;54230;52.402;6.276;2023-12-20T15:40:00;15.4;;;3.5;;
67344;SDS011;54230;52.402;6.276;2023-12-20T15:45:00;17.2;;;3.0;;
67344;SDS011;54230;52.402;6.276;2023-12-20T15:50:00;18.9;;;3.3;;
67344;SDS011;54230;52.402;6.276;2023-12-20T15:55:00;19.7;;;3.0;;
67344;SDS011;54230;52.402;6.276;2023-12-20T16:00:00;19.4;;;2.8;;
67344;SDS011;54230;52.402;6.276;2023-12-20T16:05:00;16.8;;;3.0;;
67344;SDS011;54230;52.402;6.276;2023-12-20T16:10:00;20.8;;;3.2;;
67344;SDS011;54230;52.402;6.276;2023-12-20T16:15:00;17.2;;;2.9;;
67344;SDS011;54230;52.402;6.276;2023-12-20T16:20:00;17.8;;;3.5;;
67344;SDS011;54230;52.402;6.276;2023-12-20T16:25:00;19.3;;;3.4;;
67344;SDS011;54230;52.402;6.276;2023-12-20T16:30:00;22.5;;;3.3;;
67344;SDS011;54230;52.402;6.276;2023-12-20T16:35:00;25.6;;;3.8;;
67344;SDS011;54230;52.402;6.276;2023-12-20T16:40:00;21.3;;;3.1;;
67344;SDS011;54230;52.402;6.276;2023-12-20T16:45:00;18.6;;;2.9;;
67344;SDS011;54230;52.402;6.276;2023-12-20T16:50:00;22.3;;;3.3;;
67344;SDS011;54230;52.402;6.276;2023-12-20T16:55:00;17.5;;;3.2;;
67344;SDS011;54230;52.402;6.276;2023-12-20T17:00:00;26.5;;;3.3;;
67344;SDS011;54230;52.402;6.276;2023-12-20T17:05:00;18.9;;;3.2;;
67344;SDS011;54230;52.402;6.276;2023-12-20T17:10:00;27.1;;;3.9;;
67344;SDS011;54230;52.402;6.276;2023-12-20T17:15:00;23.1;;;3.9;;
67344;SDS011;54230;52.402;6.276;2023-12-20T17:20:00;18.1;;;3.3;;
67344;SDS011;54230;52.402;6.276;2023-12-20T17:25:00;19.7;;;3.7;;
67344;SDS011;54230;52.402;6.276;2023-12-20T17:30:00;23.3;;;4.1;;
67344;SDS011;54230;52.402;6.276;2023-12-20T17:35:00;18.6;;;3.5;;
67344;SDS011;54230;52.402;6.276;2023-12-20T17:40:00;19.6;;;4.1;;
67344;SDS011;54230;52.402;6.276;2023-12-20T17:45:00;16.4;;;3.4;;
67344;SDS011;54230;52.402;6.276;2023-12-20T17:50:00;15.3;;;3.2;;
67344;SDS011;54230;52.402;6.276;2023-12-20T17:55:00;19.2;;;3.8;;
67344;SDS011;54230;52.402;6.276;2023-12-20T18:00:10;14.9;;;3.5;;
67344;SDS011;54230;52.402;6.276;2023-12-20T18:05:00;17.1;;;3.4;;
67344;SDS011;54230;52.402;6.276;2023-12-20T18:10:00;15.0;;;4.3;;
67344;SDS011;54230;52.402;6.276;2023-12-20T18:15:00;17.3;;;4.6;;
67344;SDS011;54230;52.402;6.276;2023-12-20T18:20:00;16.5;;;4.4;;
67344;SDS011;54230;52.402;6.276;2023-12-20T18:25:00;13.6;;;3.8;;
67344;SDS011;54230;52.402;6.276;2023-12-20T18:30:00;12.2;;;3.8;;
67344;SDS011;54230;52.402;6.276;2023-12-20T18:35:00;12.8;;;3.7;;
67344;SDS011;54230;52.402;6.276;2023-12-20T18:40:00;12.3;;;3.7;;
67344;SDS011;54230;52.402;6.276;2023-12-20T18:45:00;12.9;;;4.5;;
67344;SDS011;54230;52.402;6.276;2023-12-20T18:50:00;14.4;;;4.8;;
67344;SDS011;54230;52.402;6.276;2023-12-20T18:55:00;14.4;;;4.5;;
67344;SDS011;54230;52.402;6.276;2023-12-20T19:00:00;14.3;;;5.6;;
67344;SDS011;54230;52.402;6.276;2023-12-20T19:05:00;14.4;;;5.0;;
67344;SDS011;54230;52.402;6.276;2023-12-20T19:10:00;13.6;;;4.8;;
67344;SDS011;54230;52.402;6.276;2023-12-20T19:15:00;14.3;;;5.4;;
67344;SDS011;54230;52.402;6.276;2023-12-20T19:20:00;15.1;;;5.1;;
67344;SDS011;54230;52.402;6.276;2023-12-20T19:25:00;12.8;;;5.0;;
67344;SDS011;54230;52.402;6.276;2023-12-20T19:30:00;12.7;;;4.8;;
67344;SDS011;54230;52.402;6.276;2023-12-20T19:35:00;15.8;;;4.8;;
67344;SDS011;54230;52.402;6.276;2023-12-20T19:40:00;14.1;;;4.4;;
67344;SDS011;54230;52.402;6.276;2023-12-20T19:45:00;15.2;;;4.4;;
67344;SDS011;54230;52.402;6.276;2023-12-20T19:50:00;12.7;;;4.6;;
67344;SDS011;54230;52.402;6.276;2023-12-20T19:55:00;14.0;;;5.0;;
67344;SDS011;54230;52.402;6.276;2023-12-20T20:00:00;11.7;;;4.1;;
67344;SDS011;54230;52.402;6.276;2023-12-20T20:05:00;11.2;;;4.2;;
67344;SDS011;54230;52.402;6.276;2023-12-20T20:10:00;7.8;;;3.3;;
67344;SDS011;54230;52.402;6.276;2023-12-20T20:15:00;10.3;;;4.2;;
67344;SDS011;54230;52.402;6.276;2023-12-20T20:20:00;8.1;;;2.9;;
67344;SDS011;54230;52.402;6.276;2023-12-20T20:25:00;9.4;;;3.2;;
67344;SDS011;54230;52.402;6.276;2023-12-20T20:30:00;8.6;;;2.5;;
67344;SDS011;54230;52.402;6.276;2023-12-20T20:35:00;8.7;;;2.8;;
67344;SDS011;54230;52.402;6.276;2023-12-20T20:40:00;7.0;;;2.4;;
67344;SDS011;54230;52.402;6.276;2023-12-20T20:45:00;12.6;;;2.8;;
67344;SDS011;54230;52.402;6.276;2023-12-20T20:50:00;7.1;;;2.4;;
67344;SDS011;54230;52.402;6.276;2023-12-20T20:55:00;7.5;;;2.5;;
67344;SDS011;54230;52.402;6.276;2023-12-20T21:00:00;7.3;;;2.6;;
67344;SDS011;54230;52.402;6.276;2023-12-20T21:05:00;5.0;;;2.1;;
67344;SDS011;54230;52.402;6.276;2023-12-20T21:10:00;6.9;;;2.1;;
67344;SDS011;54230;52.402;6.276;2023-12-20T21:15:00;7.8;;;2.4;;
67344;SDS011;54230;52.402;6.276;2023-12-20T21:20:00;6.8;;;2.3;;
67344;SDS011;54230;52.402;6.276;2023-12-20T21:25:00;8.9;;;2.6;;
67344;SDS011;54230;52.402;6.276;2023-12-20T21:30:00;11.5;;;3.2;;
67344;SDS011;54230;52.402;6.276;2023-12-20T21:35:00;13.2;;;3.6;;
67344;SDS011;54230;52.402;6.276;2023-12-20T21:40:00;13.7;;;3.7;;
67344;SDS011;54230;52.402;6.276;2023-12-20T21:45:00;16.5;;;3.7;;
67344;SDS011;54230;52.402;6.276;2023-12-20T21:50:00;12.6;;;3.0;;
67344;SDS011;54230;52.402;6.276;2023-12-20T21:55:00;17.5;;;3.7;;
67344;SDS011;54230;52.402;6.276;2023-12-20T22:00:00;17.8;;;4.1;;
67344;SDS011;54230;52.402;6.276;2023-12-20T22:05:00;15.7;;;3.9;;
67344;SDS011;54230;52.402;6.276;2023-12-20T22:10:00;12.5;;;3.5;;
67344;SDS011;54230;52.402;6.276;2023-12-20T22:15:00;17.0;;;4.4;;
67344;SDS011;54230;52.402;6.276;2023-12-20T22:20:00;15.9;;;4.5;;
67344;SDS011;54230;52.402;6.276;2023-12-20T22:25:00;17.3;;;4.4;;
67344;SDS011;54230;52.402;6.276;2023-12-20T22:30:00;17.0;;;4.6;;
67344;SDS011;54230;52.402;6.276;2023-12-20T22:35:00;18.6;;;4.5;;
67344;SDS011;54230;52.402;6.276;2023-12-20T22:40:00;16.2;;;4.7;;
67344;SDS011;54230;52.402;6.276;2023-12-20T22:45:00;22.0;;;4.5;;
67344;SDS011;54230;52.402;6.276;2023-12-20T22:50:00;21.0;;;4.8;;
67344;SDS011;54230;52.402;6.276;2023-12-20T22:55:00;19.5;;;4.5;;
67344;SDS011;54230;52.402;6.276;2023-12-20T23:00:00;16.6;;;3.9;;
67344;SDS011;54230;52.402;6.276;2023-12-20T23:05:00;20.2;;;4.6;;
67344;SDS011;54230;52.402;6.276;2023-12-20T23:10:00;19.1;;;4.6;;
67344;SDS011;54230;52.402;6.276;2023-12-20T23:15:00;22.2;;;4.7;;
67344;SDS011;54230;52.402;6.276;2023-12-20T23:20:00;22.1;;;4.8;;
67344;SDS011;54230;52.402;6.276;2023-12-20T23:25:00;16.2;;;4.7;;
67344;SDS011;54230;52.402;6.276;2023-12-20T23:30:00;17.8;;;4.4;;
67344;SDS011;54230;52.402;6.276;2023-12-20T23:35:00;15.5;;;4.4;;
67344;SDS011;54230;52.402;6.276;2023-12-20T23:40:00;24.1;;;5.0;;
67344;SDS011;54230;52.402;6.276;2023-12-20T23:45:00;15.3;;;4.5;;
67344;SDS011;54230;52.402;6.276;2023-12-20T23:50:00;17.9;;;4.3;;
67344;SDS011;54230;52.402;6.276;2023-12-20T23:55:00;20.9;;;4.6;;
